< Typhoon 196528 1965 Season Typhoon 196530 >
Typhoon 196529 (CARMEN)
General InformationTrack Information on Google Maps || Disaster Info.ResourceGoogle EarthGE AnimationAtom FeedGeoJSON
Detalied Best Track (Time Zone = UTC)
Year Month Day Hour Lat. Long. Pressure (hPa) Wind (kt) Class Image Chart
1965 10 1 18 10.0 160.0 1006 0 2 -- Chart
1965 10 2 00 10.3 158.9 1006 0 2 -- Chart
1965 10 2 06 10.5 157.9 1006 0 2 -- Chart
1965 10 2 12 10.6 157.0 1006 0 2 -- Chart
1965 10 2 18 11.0 156.0 1005 0 2 -- Chart
1965 10 3 00 11.5 155.5 1007 0 2 -- Chart
1965 10 3 06 12.1 154.7 1006 0 2 -- Chart
1965 10 3 12 12.4 153.9 1006 0 2 -- Chart
1965 10 3 18 12.6 152.9 1004 0 2 -- Chart
1965 10 4 00 12.5 151.9 1000 0 2 -- Chart
1965 10 4 06 12.7 151.2 996 0 9 -- Chart
1965 10 4 12 13.0 150.2 996 0 9 -- Chart
1965 10 4 18 13.5 149.5 996 0 9 -- Chart
1965 10 5 00 14.2 148.5 994 0 9 -- Chart
1965 10 5 06 15.3 147.7 990 0 9 -- Chart
1965 10 5 12 15.9 147.6 986 0 9 -- Chart
1965 10 5 18 16.5 147.2 970 0 9 -- Chart
1965 10 6 00 16.6 146.6 954 0 9 -- Chart
1965 10 6 06 16.9 145.8 944 0 9 -- Chart
1965 10 6 12 17.8 145.7 924 0 9 -- Chart
1965 10 6 18 18.6 145.6 914 0 9 -- Chart
1965 10 7 00 19.6 145.5 914 0 9 -- Chart
1965 10 7 06 20.2 145.7 914 0 9 -- Chart
1965 10 7 12 21.0 145.9 914 0 9 -- Chart
1965 10 7 18 21.8 145.9 917 0 9 -- Chart
1965 10 8 00 23.1 145.6 920 0 9 -- Chart
1965 10 8 06 24.2 145.8 930 0 9 -- Chart
1965 10 8 12 25.4 146.1 930 0 9 -- Chart
1965 10 8 18 27.0 146.6 935 0 9 -- Chart
1965 10 9 00 28.7 147.2 940 0 9 -- Chart
1965 10 9 06 31.9 146.8 960 0 9 -- Chart
1965 10 9 12 34.7 149.4 965 0 9 -- Chart
1965 10 9 18 39.1 152.5 970 0 9 -- Chart
1965 10 10 00 43.3 155.5 980 0 6 -- Chart
1965 10 10 06 48.5 161.3 982 0 6 -- Chart
1965 10 10 12 49.9 164.5 978 0 6 -- Chart
1965 10 10 18 51.5 169.0 974 0 6 -- Chart
1965 10 11 00 52.6 173.0 972 0 6 -- Chart
1965 10 11 06 53.1 175.2 966 0 6 -- Chart
1965 10 11 12 53.1 178.4 966 0 6 -- Chart
1965 10 11 18 54.1 182.9 966 0 6 -- Chart
Japan Meteorological Agency Best Track Data | Correction Date : 1989-06-01
< Typhoon 196528 1965 Season Typhoon 196530 >

Help